createdAt,value
2019-05-07T00:05:39.473Z,0.73
2019-05-07T00:15:39.416Z,0.05
2019-05-07T00:25:39.512Z,0.16
2019-05-07T00:35:39.556Z,0.26
2019-05-07T00:45:39.395Z,0.01
2019-05-07T00:55:39.492Z,0.00
2019-05-07T01:05:39.449Z,0.01
2019-05-07T01:15:39.412Z,0.03
2019-05-07T01:25:39.483Z,0.42
2019-05-07T01:35:39.750Z,0.13
2019-05-07T01:45:48.174Z,0.29
2019-05-07T01:55:39.463Z,0.49
2019-05-07T02:05:39.451Z,0.66
2019-05-07T02:15:39.473Z,0.97
2019-05-07T02:25:41.966Z,1.10
2019-05-07T02:35:39.494Z,0.63
2019-05-07T02:45:39.417Z,1.01
2019-05-07T02:55:39.476Z,1.76
2019-05-07T03:05:39.439Z,1.32
2019-05-07T03:15:43.192Z,1.32
2019-05-07T03:25:39.400Z,1.21
2019-05-07T03:35:39.436Z,1.36
2019-05-07T03:45:39.425Z,1.38
2019-05-07T03:55:39.378Z,1.41
2019-05-07T04:05:39.455Z,1.37
2019-05-07T04:15:39.490Z,1.02
2019-05-07T04:25:39.411Z,0.65
2019-05-07T04:35:43.069Z,0.37
2019-05-07T04:45:39.444Z,0.35
2019-05-07T04:55:42.855Z,0.66
2019-05-07T05:05:39.400Z,0.87
2019-05-07T05:15:39.474Z,0.62
2019-05-07T05:25:39.399Z,0.58
2019-05-07T05:35:39.501Z,0.47
2019-05-07T05:45:39.429Z,0.63
2019-05-07T05:55:39.520Z,0.71
2019-05-07T06:05:39.445Z,0.69
2019-05-07T06:15:39.419Z,0.61
2019-05-07T06:25:39.523Z,1.36
2019-05-07T06:35:39.491Z,1.70
2019-05-07T06:45:39.514Z,1.80
2019-05-07T06:55:39.484Z,0.84
2019-05-07T07:05:39.472Z,0.86
2019-05-07T07:15:39.753Z,0.80
2019-05-07T07:25:39.520Z,1.52
2019-05-07T07:35:39.491Z,0.65
2019-05-07T07:45:41.893Z,0.81
2019-05-07T07:55:39.522Z,0.81
2019-05-07T08:05:39.477Z,1.49
2019-05-07T08:15:39.542Z,1.03
2019-05-07T08:25:39.518Z,1.11
2019-05-07T08:35:41.788Z,1.86
2019-05-07T08:45:39.536Z,0.84
2019-05-07T08:55:39.605Z,1.44
2019-05-07T09:05:39.476Z,1.51
2019-05-07T09:15:39.595Z,1.17
2019-05-07T09:25:41.568Z,0.68
2019-05-07T09:35:39.867Z,0.39
2019-05-07T09:45:41.880Z,0.84
2019-05-07T09:55:39.492Z,0.78
2019-05-07T10:05:39.528Z,0.77
2019-05-07T10:15:41.747Z,1.91
2019-05-07T10:25:39.525Z,0.99
2019-05-07T10:35:39.564Z,1.33
2019-05-07T10:45:39.529Z,1.09
2019-05-07T10:55:39.543Z,0.88
2019-05-07T11:05:41.707Z,2.22
2019-05-07T11:15:39.553Z,2.84
2019-05-07T11:25:39.524Z,1.77
2019-05-07T11:35:39.492Z,1.31
2019-05-07T11:45:39.563Z,1.28
2019-05-07T11:55:41.932Z,1.63
2019-05-07T12:05:39.516Z,0.97
2019-05-07T12:15:39.580Z,1.86
2019-05-07T12:25:39.551Z,2.62
2019-05-07T12:35:41.912Z,2.29
2019-05-07T12:45:39.520Z,2.88
2019-05-07T12:55:39.567Z,2.71
2019-05-07T13:05:41.622Z,2.92
2019-05-07T13:15:39.568Z,3.20
2019-05-07T13:25:39.561Z,2.34
2019-05-07T13:35:39.511Z,3.29
2019-05-07T13:45:41.670Z,2.65
2019-05-07T13:55:43.039Z,0.97
2019-05-07T14:05:39.643Z,1.61
2019-05-07T14:15:39.589Z,2.48
2019-05-07T14:25:41.946Z,1.86
2019-05-07T14:35:39.613Z,2.13
2019-05-07T14:45:41.971Z,0.95
2019-05-07T14:55:41.664Z,2.05
2019-05-07T15:05:39.520Z,2.53
2019-05-07T15:15:39.674Z,1.99
2019-05-07T15:25:39.431Z,2.04
2019-05-07T15:35:39.515Z,1.05
2019-05-07T15:45:39.496Z,0.49
2019-05-07T15:55:41.637Z,1.09
2019-05-07T16:05:39.512Z,1.19
2019-05-07T16:15:39.595Z,0.83
2019-05-07T16:25:39.574Z,1.15
2019-05-07T16:35:39.531Z,0.69
2019-05-07T16:45:39.473Z,0.27
2019-05-07T16:55:39.485Z,0.87
2019-05-07T17:05:39.531Z,0.39
2019-05-07T17:15:39.468Z,0.17
2019-05-07T17:25:39.466Z,0.01
2019-05-07T17:35:39.548Z,0.07
2019-05-07T17:45:39.595Z,0.03
2019-05-07T17:55:42.169Z,0.01
2019-05-07T18:05:39.458Z,0.12
2019-05-07T18:15:39.542Z,0.00
2019-05-07T18:25:39.520Z,0.00
2019-05-07T18:35:39.498Z,0.00
2019-05-07T18:45:39.549Z,0.01
2019-05-07T18:55:39.704Z,0.75
2019-05-07T19:05:39.580Z,0.75
2019-05-07T19:15:41.855Z,0.03
2019-05-07T19:25:41.912Z,0.56
2019-05-07T19:35:41.751Z,1.52
2019-05-07T19:45:41.753Z,1.40
2019-05-07T19:55:42.020Z,1.11
2019-05-07T20:05:41.878Z,0.91
2019-05-07T20:15:39.546Z,1.16
2019-05-07T20:25:41.845Z,1.03
2019-05-07T20:35:41.343Z,1.25
2019-05-07T20:45:39.573Z,1.48
2019-05-07T20:55:39.620Z,1.47
2019-05-07T21:05:41.657Z,1.67
2019-05-07T21:15:41.760Z,1.61
2019-05-07T21:25:43.600Z,1.38
2019-05-07T21:35:39.743Z,1.44
2019-05-07T21:45:39.612Z,1.02
2019-05-07T21:55:39.590Z,1.28
2019-05-07T22:05:44.058Z,1.25
2019-05-07T22:15:39.617Z,1.24
2019-05-07T22:25:39.583Z,1.07
2019-05-07T22:35:39.563Z,0.55
2019-05-07T22:45:39.553Z,0.63
2019-05-07T22:55:41.800Z,0.88
2019-05-07T23:05:39.551Z,0.71
2019-05-07T23:15:39.541Z,0.82
2019-05-07T23:25:39.485Z,0.38
2019-05-07T23:35:39.427Z,0.24
2019-05-07T23:45:39.547Z,0.27
2019-05-07T23:55:39.479Z,0.75
